This is the latest recevied weather packets stored in our database for station/object EA3ABN-15. If no packets are shown the sender has not sent any weather packets the latest 1 day(s).
| Time | Temp. | Humidity | Pressure | Rain* | Wind** | Luminosity | Snow |
|---|---|---|---|---|---|---|---|
| 1778101633 | 15° C | 55% | 1054.4 hPa | - | - | - | - |
| 1778094432 | 15° C | 56% | 1053 hPa | - | - | - | - |
| 1778093532 | 15.56° C | 54% | 1052.7 hPa | - | - | - | - |
| 1778092632 | 16.11° C | 52% | 1052.5 hPa | - | - | - | - |
| 1778085431 | 16.67° C | 47% | 1051.4 hPa | - | - | - | - |
| 1778084531 | 16.67° C | 48% | 1051.3 hPa | - | - | - | - |
| 1778083631 | 16.67° C | 47% | 1051.2 hPa | - | - | - | - |
| 1778082731 | 16.67° C | 48% | 1051.2 hPa | - | - | - | - |
| 1778080032 | 16.67° C | 47% | 1051.4 hPa | - | - | - | - |
| 1778079132 | 16.67° C | 47% | 1051.3 hPa | - | - | - | - |
| 1778078232 | 16.67° C | 47% | 1051.4 hPa | - | - | - | - |
| 1778077332 | 16.67° C | 46% | 1051.5 hPa | - | - | - | - |
| 1778069231 | 17.22° C | 47% | 1052.1 hPa | - | - | - | - |
| 1778068331 | 17.22° C | 47% | 1052.1 hPa | - | - | - | - |
| 1778067431 | 16.67° C | 47% | 1052.2 hPa | - | - | - | - |
| 1778062930 | 15.56° C | 51% | 1052.8 hPa | - | - | - | - |
| 1778061130 | 15.56° C | 52% | 1053.2 hPa | - | - | - | - |
| 1778060230 | 15.56° C | 52% | 1053.2 hPa | - | - | - | - |
| 1778059329 | 15.56° C | 52% | 1053.3 hPa | - | - | - | - |
| 1778058431 | 15.56° C | 52% | 1053.2 hPa | - | - | - | - |
| 1778052130 | 15° C | 51% | 1052.7 hPa | - | - | - | - |
| 1778051230 | 15.56° C | 50% | 1052.5 hPa | - | - | - | - |
| 1778050330 | 16.11° C | 48% | 1052.5 hPa | - | - | - | - |
| 1778049430 | 19.44° C | 40% | 1052.2 hPa | - | - | - | - |
| 1778048530 | 22.22° C | 35% | 1052.2 hPa | - | - | - | - |
* Rain since midnight (hover to see other rain measurements)
** Current wind speed in m/s (hover to see current wind gust speed)